默认 日期 大小 文件数 浏览量 最新下载 xml
circus磁力链接相关资源由用户搜索指令自动获取,结果来源于网络,本站不存储任何资料,亦不承担任何责任,请于24小时内删除,搜索到5070个磁力,显示前4000条数据,用时4ms。
    ... (feat. Foreign Beggars).mp3": 10234743, "Circus One (Presented By Doctor P ... Flux Pavilion).jpg": 140063, "17 Circus One (Presented By Doctor P ...
创建时间: 2019-04-25 23:29:19 大小:234.55 MB 文件数量:18 热度:5 最近下载:2025-01-12 15:22:03
    {"KLAXXON.nfo": 257, "The Invisible circus KLAXXON.avi": 1016119296}
创建时间: 2019-04-25 23:43:52 大小:969.05 MB 文件数量:2 热度:3 最近下载:2021-06-17 16:25:58
    ... .Chariot.Superstar.2019.Part.2.Circus.Maximus.720p.WEB.h264-CAFFEiNE ... .Chariot.Superstar.2019.Part.2.Circus.Maximus.720p.WEB.h264-CAFFEiNE ...
创建时间: 2019-04-26 01:12:13 大小:1.04 GB 文件数量:8 热度:4 最近下载:2021-06-17 16:25:58
    {"tamilrockers.com.txt": 16, "www.TamilRockers.com.jpg": 37355, "Visit us at TamilRockerrs.pl.url": 123, "www.TamilRockerrs.pl - Mehandi Circus (2019) [Tamil - HQ Real-DVDScr - x264 - 250MB - HQ Line Audio].mkv": 278082336}
创建时间: 2019-04-26 15:33:14 大小:265.24 MB 文件数量:4 热度:12 最近下载:2025-09-19 10:17:07
    ... !!!.txt": 2642, "Aleksandra Polak - Circus Lumos 01 Król Kier ... .mobi": 1907486, "Aleksandra Polak - Circus Lumos 01 Król Kier ... .jpg": 152653}, "Aleksandra Polak - Circus Lumos 02 Perłowa Dama ... .mobi": 1659883, "Aleksandra Polak - Circus Lumos 02 Perłowa Dama ...
创建时间: 2019-04-26 22:25:11 大小:13.63 MB 文件数量:10 热度:7 最近下载:2025-03-10 04:57:01
    {"ape": {"Circus Of Power - Circus Of Power.ape": 276816452, "Circus Of Power - Circus Of Power ... .cue": 1288, "Circus Of Power - Circus Of ...
创建时间: 2019-04-27 04:22:20 大小:300.55 MB 文件数量:18 热度:7 最近下载:2025-07-25 23:50:01
    {"The.Butterfly.Circus.2009.DVD.XviD.V.O.Sub.Spanish.[www.SubEstrenos.com].avi": 87314432}
创建时间: 2019-04-27 14:20:40 大小:83.27 MB 文件数量:1 热度:4 最近下载:2021-06-17 16:25:58
    {"01-dave_aju--rise-oma.mp3": 11036340, "04-dave_aju--away_away-oma.mp3": 12067660, "10-dave_aju--revealing-oma.mp3": 24781979, "03-dave_aju--to_be_free-oma.mp3": 24692118, "05-dave_aju--until_then-oma.mp3": 13586942, "06-dave_aju--ms._reposado-oma.mp3": ...
创建时间: 2019-04-28 02:32:46 大小:148.97 MB 文件数量:14 热度:4 最近下载:2021-06-17 16:25:58
    ... [1080p].mkv": 1402136459, "[KANSAI] Karakuri Circus - 05 [1080p].mkv": 1123241234, "[ ... KANSAI] Karakuri Circus - 06 [1080p].mkv": 1101888284, "[ ... KANSAI] Karakuri Circus - 07 [1080p].mkv": 1329791793, "[ ...
创建时间: 2019-04-28 04:13:04 大小:28.26 GB 文件数量:23 热度:5 最近下载:2025-08-25 17:32:05
    {"01. Over me ~TV size~.mp3": 3573949}
创建时间: 2019-04-28 06:35:25 大小:3.41 MB 文件数量:1 热度:6 最近下载:2025-08-04 16:07:11
    ... .mp3": 9271797, "Ali Azmat - Social Circus.m3u": 638}
创建时间: 2019-04-28 13:44:47 大小:109.43 MB 文件数量:12 热度:3 最近下载:2021-06-17 16:25:58
    {"1.jpg": 63611, "2.jpg": 201267, "3.png": 248506, "4.png": 273073, "5.png": 188278, "6.jpg": 82646}
创建时间: 2019-04-28 14:04:35 大小:1.01 MB 文件数量:6 热度:10 最近下载:2025-08-04 06:36:08
    {"RARBG.txt": 30, "The.Circus.S03E11.1080p.WEB.H264-AMRAP.mkv": 1758466429, "the.circus.s03e11.1080p.web.h264-amrap.nfo": 326}
创建时间: 2019-04-28 14:59:32 大小:1.64 GB 文件数量:3 热度:4 最近下载:2021-06-17 16:25:58
    ... 887786, "front.jpg": 775448}, "Undertakers Circus - Ragnarock [2004 Reissue].cue": 1626 ... , "Undertakers Circus - Ragnarock [2004 Reissue].log": ... 3656, "Undertakers Circus - Ragnarock [2004 Reissue].flac": 279680586 ...
创建时间: 2019-04-29 00:19:39 大小:271.18 MB 文件数量:9 热度:4 最近下载:2021-06-17 16:25:58
    {"tamilrockers.com.txt": 16, "www.TamilRockers.com.jpg": 37355, "Visit us at TamilRockerrs.pl.url": 123, "www.TamilRockerrs.pl - Mehandi Circus (2019) [Tamil - 720p HQ Real-DVDScr - x264 - 1.4GB - HQ Line Audio].mkv": 1491057058}
创建时间: 2019-04-29 15:27:40 大小:1.39 GB 文件数量:4 热度:7 最近下载:2025-09-19 10:17:03
    {"VIDEO_TS": {"VIDEO_TS.BUP": 16384, "VIDEO_TS.IFO": 16384, "VIDEO_TS.VOB": 17344512, "VTS_01_0.BUP": 73728, "VTS_01_0.IFO": 73728, "VTS_01_0.VOB": 81958912, "VTS_01_1.VOB": 1073709056, "VTS_01_2.VOB": 1073709056, "VTS_01_3.VOB": 1073709056, "VTS_01_4.VOB ...
创建时间: 2019-04-29 17:34:20 大小:3.78 GB 文件数量:26 热度:7 最近下载:2025-08-07 03:59:03
    {"Circus.Fantasticus.2010.HR.PDTV.x264-EXPERiMENTAL.mkv": 950948965}
创建时间: 2019-04-29 20:49:31 大小:906.9 MB 文件数量:1 热度:4 最近下载:2021-06-17 16:25:58
    ... ": 64249, "screen0006.jpg": 65817}, "the.circus.s04e05.web.h264-tbs.mkv ... ": 262340148, "the.circus.s04e05.web.h264-tbs.nfo ...
创建时间: 2019-04-30 03:52:36 大小:250.67 MB 文件数量:9 热度:4 最近下载:2021-06-17 16:25:58
    ... Cover.bmp": 24842690, "Hello Kitty Circus NLT-Release.avi": 221161332, "Torrent ...
创建时间: 2019-04-30 07:43:53 大小:446.33 MB 文件数量:6 热度:4 最近下载:2021-06-17 16:25:58
    {"RARBG.txt": 30, "RARBG_DO_NOT_MIRROR.exe": 99, "Circus.of.Fear.1966.BRRip.XviD.MP3-XVID.avi": 1233965742}
创建时间: 2019-04-30 11:38:12 大小:1.15 GB 文件数量:3 热度:5 最近下载:2024-08-29 01:38:01